createdAt,value
2019-05-23T00:02:47.144Z,16.1
2019-05-23T00:12:46.363Z,16.1
2019-05-23T00:22:45.587Z,16.1
2019-05-23T00:32:44.805Z,16
2019-05-23T00:42:44.026Z,16
2019-05-23T00:52:43.243Z,15.9
2019-05-23T01:02:42.459Z,15.8
2019-05-23T01:12:41.742Z,15.8
2019-05-23T01:22:40.892Z,15.6
2019-05-23T01:32:40.106Z,15.4
2019-05-23T01:42:39.350Z,15.4
2019-05-23T01:52:38.553Z,15.3
2019-05-23T02:02:37.770Z,15.2
2019-05-23T02:12:36.993Z,15.2
2019-05-23T02:22:36.208Z,15.1
2019-05-23T02:32:35.422Z,15.1
2019-05-23T02:42:34.640Z,15.1
2019-05-23T02:52:33.853Z,15
2019-05-23T03:02:33.071Z,15
2019-05-23T03:12:33.016Z,15
2019-05-23T03:22:32.229Z,15
2019-05-23T03:32:37.813Z,15.1
2019-05-23T03:42:30.678Z,15.5
2019-05-23T03:52:29.885Z,16.1
2019-05-23T04:02:29.106Z,16.9
2019-05-23T04:12:28.326Z,17.1
2019-05-23T04:22:27.544Z,17.5
2019-05-23T04:32:26.767Z,18.4
2019-05-23T04:42:25.982Z,19.7
2019-05-23T04:52:25.202Z,21
2019-05-23T05:02:26.608Z,21.4
2019-05-23T05:12:23.699Z,21.4
2019-05-23T05:22:22.865Z,20.5
2019-05-23T05:32:22.076Z,21.6
2019-05-23T05:42:21.296Z,22.6
2019-05-23T05:52:20.518Z,23.9
2019-05-23T06:02:19.737Z,24.6
2019-05-23T06:12:18.964Z,24.9
2019-05-23T06:22:18.180Z,25.2
2019-05-23T06:32:17.460Z,25.7
2019-05-23T06:42:16.632Z,26.4
2019-05-23T06:52:15.847Z,26.3
2019-05-23T07:02:15.069Z,26.8
2019-05-23T07:12:14.287Z,27.4
2019-05-23T07:22:13.515Z,27.9
2019-05-23T07:32:12.730Z,28.5
2019-05-23T07:42:11.951Z,27.9
2019-05-23T07:52:11.236Z,28.1
2019-05-23T08:02:10.400Z,26.3
2019-05-23T08:12:09.632Z,26.3
2019-05-23T08:22:08.844Z,27.3
2019-05-23T08:32:08.075Z,28.2
2019-05-23T08:42:07.290Z,27.1
2019-05-23T08:52:06.515Z,26.8
2019-05-23T09:02:05.741Z,26.9
2019-05-23T09:12:04.961Z,27.1
2019-05-23T09:22:04.205Z,27.3
2019-05-23T09:32:03.424Z,27.2
2019-05-23T09:42:02.662Z,27.2
2019-05-23T09:52:01.885Z,27.3
2019-05-23T10:02:01.183Z,27.3
2019-05-23T10:12:00.405Z,27.2
2019-05-23T10:21:59.599Z,26.8
2019-05-23T10:31:58.826Z,26.4
2019-05-23T10:41:58.122Z,26.3
2019-05-23T10:51:57.287Z,26.1
2019-05-23T11:01:56.515Z,25.6
2019-05-23T11:11:55.784Z,25.3
2019-05-23T11:21:54.969Z,25
2019-05-23T11:31:54.197Z,25.2
2019-05-23T11:41:53.430Z,25.3
2019-05-23T11:51:52.648Z,25
2019-05-23T12:01:51.917Z,25
2019-05-23T12:11:51.105Z,25.1
2019-05-23T12:21:50.354Z,25.2
2019-05-23T12:31:49.994Z,24.9
2019-05-23T12:41:48.815Z,24.8
2019-05-23T12:51:47.986Z,24.6
2019-05-23T13:01:47.204Z,24.3
2019-05-23T13:11:46.479Z,24.1
2019-05-23T13:21:45.657Z,23.6
2019-05-23T13:31:44.874Z,23.1
2019-05-23T13:41:44.099Z,22.6
2019-05-23T13:51:43.340Z,22.4
2019-05-23T14:01:42.545Z,22.6
2019-05-23T14:11:41.770Z,23.1
2019-05-23T14:21:41.003Z,23.4
2019-05-23T14:31:40.222Z,23.1
